x

Yucatan Basin - 120 Nm Ese Of Cozumel, Mx (42056) Wave Buoy

1:50am - Fri 6th Mar 2015 All times are CST. -6 hours from GMT.

  • Sig Wave height 5.2ft
  • Swell Direction
  • Peak Period 8s
  • Average Period 6s
  • Wind
    9mph, 11mph gusts
  • Sea Temp 80°f
  • Air Temp 80°f
  • Sea Pressure 1016.9mb
  •  Yucatan Basin - 120 Nm Ese Of Cozumel, Mx
  •  Yucatan Basin - 120 Nm Ese Of Cozumel, Mx

More Historic Weather Station data

Upgrade to MSW Pro to gain access to the past 30 days of data for over 8000 Wavebouys and Weather Stations around the globe.

Join Pro

Comparision Forecast

View Surf forecast
   
Fri 03/06 1:50am 5ft 8s 6s 9 11 mph 1016.9mb 80f 80f
12:50am 5ft 8s 6s 11
mph
1017.5mb 80f 80f
Thu 03/05 11:50pm 4.5ft 7s 6s 9 13 mph 1018.1mb 80f 80f
10:50pm 4.5ft 6s 5s 11 13 mph 1018.5mb 80f 80f
9:50pm 4.5ft 7s 5s 13 16 mph 1018.7mb 80f 80f
8:50pm 4.5ft 6s 5s 11 16 mph 1018.7mb 81f 80f
7:50pm 4.5ft 7s 5s 16 18 mph 1017.5mb 81f 80f
6:50pm 4.5ft 6s 5s 16 18 mph 1016.6mb 81f 80f
5:50pm 5ft 6s 5s 13 18 mph 1016.2mb 81f 80f
4:50pm 5ft 7s 5s 11 13 mph 1016.1mb 81f 81f
3:50pm 5ft 6s 5s 16 18 mph 1015mb 81f 81f
2:50pm 5ft 6s 5s 16 18 mph 1015mb 81f 80f
1:50pm 6ft 7s 6s 16 20 mph 1015.3mb 81f 81f
12:50pm 5ft 6s 5s 18 22 mph 1015.3mb 81f 80f
11:50am 5.5ft 7s 5s 20 25 mph 1015.7mb 81f 80f
10:50am 5.5ft 6s 5s 20 22 mph 1016.4mb 81f 80f
9:50am 5ft 7s 5s 18 22 mph 1016.5mb 80f 80f
8:50am 5ft 8s 6s 18 20 mph 1016.4mb 80f 80f
7:50am 5ft 8s 6s 16 18 mph 1016mb 80f 80f
6:50am 5ft 6s 6s 13 18 mph 1015.5mb 80f 80f
5:50am 5ft 6s 5s 13 18 mph 1014.6mb 80f 80f
4:50am 5ft 8s 6s 16 20 mph 1013.7mb 80f 80f
3:50am 5ft 8s 6s 18 20 mph 1013mb 80f 80f
2:50am 6ft 7s 6s 16 18 mph 1013.1mb 80f 79f
1:50am 5.5ft 7s 6s 18 20 mph 1013.4mb 80f 80f
12:50am 6ft 7s 6s 16 20 mph 1014.1mb 80f 80f
Wed 03/04 11:50pm 6ft 8s 6s 16 20 mph 1014.8mb 80f 80f
10:50pm 6ft 7s 6s 18 20 mph 1015.2mb 80f 80f
9:50pm 5ft 6s 5s 16 20 mph 1015.5mb 80f 80f
8:50pm 5ft 6s 6s 18 22 mph 1015.3mb 80f 80f
7:50pm 5ft 7s 5s 16 18 mph 1014.9mb 80f 80f
6:50pm 5ft 6s 5s 16 20 mph 1014.2mb 80f 80f
5:50pm 4.5ft 6s 5s 18 20 mph 1013.8mb 80f 80f
4:50pm 5ft 7s 5s 16 20 mph 1013.8mb 80f 80f
3:50pm 5ft 7s 5s 18 20 mph 1013.8mb 81f 80f
2:50pm 5ft 7s 5s 13 18 mph 1013.9mb 81f 80f
1:50pm 5ft 7s 5s 16 20 mph 1014.2mb 81f 80f
12:50pm 5ft 8s 5s 16 18 mph 1014.9mb 81f 80f
11:50am 5ft 7s 5s 13 18 mph 1015.6mb 81f 80f
10:50am 5ft 6s 5s 16 18 mph 1016.4mb 80f 80f
9:50am 4.5ft 7s 5s 16 20 mph 1016.7mb 80f 80f
8:50am 5ft 6s 5s 16 20 mph 1016.5mb 80f 80f
7:50am 5ft 7s 6s 16 20 mph 1016.1mb 80f 80f
6:50am 5ft 7s 5s 16 18 mph 1015.4mb 80f 79f
5:50am 6ft 7s 6s 16 18 mph 1014.8mb 80f 79f
4:50am 5ft 7s 5s 16 20 mph 1014.1mb 80f 79f
3:50am 6ft 7s 6s 16 18 mph 1013.7mb 80f 79f
2:50am 6ft 7s 6s 16 20 mph 1013.5mb 80f 79f
1:50am 6ft 7s 6s 18 20 mph 1013.5mb 80f 79f
12:50am 6.5ft 8s 6s 18 20 mph 1014.2mb 80f 79f
Tue 03/03 11:50pm 6.5ft 8s 6s 18 20 mph 1014.9mb 80f 79f
10:50pm 6ft 8s 6s 18 22 mph 1015.4mb 80f 79f
9:50pm 6ft 7s 6s 18 22 mph 1015.8mb 80f 79f
8:50pm 6ft 8s 6s 18 22 mph 1015.8mb 80f 80f
7:50pm 6ft 7s 6s 20 25 mph 1015.4mb 80f 80f
6:50pm 5.5ft 6s 5s 20 25 mph 1014.7mb 80f 80f
5:50pm 5ft 6s 5s 20 22 mph 1014.4mb 80f 80f
4:50pm 5ft 6s 5s 18 22 mph 1014.2mb 80f 80f
3:50pm 5ft 7s 5s 18 22 mph 1014.2mb 80f 80f
2:50pm 5ft 6s 5s 16 22 mph 1014.5mb 80f 80f
1:50pm 5ft 6s 5s 18 22 mph 1015.1mb 80f 80f
12:50pm 5ft 7s 5s 16 18 mph 1016.1mb 80f 80f
11:50am 5ft 7s 5s 13 18 mph 1017mb 80f 80f
10:50am 5ft 8s 5s 16 18 mph 1017.8mb 80f 80f
9:50am 5ft 7s 6s 16 18 mph 1018.1mb 80f 80f
8:50am 5.5ft 6s 6s 16 20 mph 1018mb 80f 80f
7:50am 5.5ft 8s 6s 16 18 mph 1017.5mb 80f 80f
6:50am 5ft 7s 5s 18 22 mph 1016.9mb 80f 79f
5:50am 5ft 7s 5s 16 18 mph 1016.5mb 80f 79f
4:50am 5ft 7s 5s 16 20 mph 1015.8mb 80f 79f
3:50am 5ft 7s 5s 18 20 mph 1015.5mb 80f 79f
2:50am 5ft 7s 5s 16 20 mph 1015.9mb 80f 79f
1:50am 5ft 7s 6s 16 20 mph 1016mb 80f 79f
12:50am 5.5ft 7s 6s 16 18 mph 1016.8mb 80f 79f
Mon 03/02 11:50pm 5ft 7s 6s 13
mph
1017.6mb 80f 79f
10:50pm 5.5ft 7s 6s 13 16 mph 1018.1mb 80f 79f
9:50pm 6ft 7s 6s 16 18 mph 1018.3mb 80f 79f
8:50pm 6ft 7s 5s 18 22 mph 1018.3mb 80f 79f
7:50pm 5.5ft 6s 5s 18 22 mph 1018mb 80f 79f
6:50pm 5ft 7s 5s 18 20 mph 1017.4mb 80f 79f
5:50pm 5ft 7s 5s 18 20 mph 1016.9mb 80f 79f
4:50pm 5ft 7s 5s 18 20 mph 1016.7mb 80f 79f
3:50pm 5ft 6s 5s 16 20 mph 1016.7mb 80f 80f
2:50pm 4.5ft 6s 5s 16 18 mph 1017mb 80f 80f
1:50pm 4.5ft 7s 5s 13 16 mph 1017.6mb 80f 80f
12:50pm 5ft 7s 5s 13 16 mph 1018.4mb 80f 80f
11:50am 5ft 7s 5s 13 16 mph 1019.4mb 80f 80f
10:50am 4.5ft 7s 5s 16 20 mph 1020.3mb 80f 80f
9:50am 5ft 7s 5s 18 20 mph 1020.6mb 80f 80f
8:50am 4.5ft 7s 5s 16 20 mph 1020.4mb 80f 80f